Time;durP1;ratioP1;P1;durP2;ratioP2;P2;SDS_P1;SDS_P2;PMS_P1;PMS_P2;Temp;Humidity;BMP_temperature;BMP_pressure;BME280_temperature;BME280_humidity;BME280_pressure;Samples;Min_cycle;Max_cycle;Signal;HPM_P1;HPM_P2
2022/07/31 00:01:50;;;;;;;1.25;1.15;;;25.90;49.30;;;;;;5067108;28;20119;-80
2022/07/31 00:04:16;;;;;;;1.77;1.30;;;25.90;49.30;;;;;;5069338;28;20021;-81
2022/07/31 00:06:43;;;;;;;1.42;1.20;;;25.90;49.30;;;;;;5059846;28;20029;-79
2022/07/31 00:09:09;;;;;;;2.35;1.63;;;25.90;49.30;;;;;;5081256;28;20032;-81
2022/07/31 00:11:35;;;;;;;1.40;1.30;;;25.80;49.40;;;;;;5063978;28;20039;-81
2022/07/31 00:14:01;;;;;;;2.58;1.27;;;25.80;49.30;;;;;;5067654;28;20021;-81
2022/07/31 00:16:27;;;;;;;1.83;1.45;;;25.80;49.40;;;;;;5066654;28;20037;-82
2022/07/31 00:18:52;;;;;;;1.77;1.42;;;25.70;49.30;;;;;;5065178;28;20048;-81
2022/07/31 00:21:18;;;;;;;1.05;0.95;;;25.70;49.40;;;;;;5061928;28;20103;-82
2022/07/31 00:23:44;;;;;;;1.75;1.40;;;25.70;49.40;;;;;;5060642;28;20057;-81
2022/07/31 00:26:10;;;;;;;1.48;1.20;;;25.70;49.40;;;;;;5047409;28;20036;-82
2022/07/31 00:28:36;;;;;;;1.58;1.27;;;25.70;49.50;;;;;;5080456;28;20040;-81
2022/07/31 00:31:02;;;;;;;1.38;1.27;;;25.70;49.50;;;;;;5047646;28;20017;-84
2022/07/31 00:33:28;;;;;;;1.55;1.30;;;25.60;49.50;;;;;;5084994;28;20029;-81
2022/07/31 00:35:54;;;;;;;1.40;1.17;;;25.60;49.50;;;;;;5094808;28;20307;-81
2022/07/31 00:38:19;;;;;;;1.38;1.27;;;25.60;49.50;;;;;;5064285;28;20145;-82
2022/07/31 00:40:47;;;;;;;1.30;1.20;;;25.60;49.50;;;;;;5099433;28;20032;-83
2022/07/31 00:43:14;;;;;;;1.17;1.08;;;25.50;49.50;;;;;;5063060;28;20024;-80
2022/07/31 00:45:40;;;;;;;1.88;1.40;;;25.50;49.60;;;;;;5053076;28;20366;-80
2022/07/31 00:48:06;;;;;;;1.67;1.25;;;25.50;49.60;;;;;;5056332;28;20033;-80
2022/07/31 00:50:32;;;;;;;2.30;1.20;;;25.50;49.60;;;;;;5052265;28;20021;-80
2022/07/31 00:52:58;;;;;;;2.13;1.25;;;25.40;49.60;;;;;;5048045;28;20440;-80
2022/07/31 00:55:25;;;;;;;1.70;1.17;;;25.40;49.60;;;;;;5081883;28;20027;-80
2022/07/31 00:57:51;;;;;;;1.27;1.05;;;25.40;49.70;;;;;;5045948;28;20029;-81
2022/07/31 01:00:17;;;;;;;2.17;1.13;;;25.40;49.70;;;;;;5049408;28;20033;-81
2022/07/31 01:02:42;;;;;;;1.35;1.20;;;25.30;49.70;;;;;;5081741;28;20044;-82
2022/07/31 01:05:08;;;;;;;1.45;1.20;;;25.30;49.80;;;;;;5048817;28;20526;-80
2022/07/31 01:07:34;;;;;;;1.35;1.17;;;25.30;49.80;;;;;;5083412;28;20037;-80
2022/07/31 01:10:05;;;;;;;1.30;1.20;;;25.30;49.90;;;;;;5051969;28;20529;-80
2022/07/31 01:12:38;;;;;;;1.60;1.40;;;25.30;49.90;;;;;;5065714;28;21793;-82
2022/07/31 01:15:06;;;;;;;2.10;1.35;;;25.20;49.80;;;;;;5064119;28;20017;-80
2022/07/31 01:17:34;;;;;;;1.50;1.40;;;25.20;49.80;;;;;;5062606;28;20147;-80
2022/07/31 01:20:00;;;;;;;1.30;1.20;;;25.20;49.80;;;;;;5061560;28;20124;-81
2022/07/31 01:22:38;;;;;;;1.75;1.35;;;25.20;49.90;;;;;;5062899;28;20451;-81
2022/07/31 01:25:10;;;;;;;1.58;1.30;;;25.20;50.10;;;;;;5060860;28;20041;-80
2022/07/31 01:27:54;;;;;;;1.95;1.35;;;25.10;50.00;;;;;;5104594;27;20440;-80
2022/07/31 01:30:25;;;;;;;1.67;1.30;;;25.10;50.00;;;;;;5076338;28;20380;-81
2022/07/31 01:32:53;;;;;;;1.33;1.20;;;25.10;50.70;;;;;;5063639;28;20485;-80
2022/07/31 01:35:27;;;;;;;1.50;1.40;;;25.10;50.00;;;;;;5083282;28;20517;-81
2022/07/31 01:38:06;;;;;;;1.98;1.38;;;25.10;50.10;;;;;;5066613;28;20060;-82
2022/07/31 01:40:34;;;;;;;1.40;1.30;;;25.00;50.10;;;;;;5080763;28;20039;-80
2022/07/31 01:43:11;;;;;;;2.13;1.40;;;25.00;50.10;;;;;;5070910;28;20023;-80
2022/07/31 01:45:40;;;;;;;1.30;1.20;;;25.00;50.20;;;;;;5084813;28;20071;-80
2022/07/31 01:48:09;;;;;;;1.30;1.20;;;25.00;50.80;;;;;;5089864;28;20033;-83
2022/07/31 01:50:38;;;;;;;1.40;1.30;;;24.90;50.20;;;;;;5080972;28;20032;-81
2022/07/31 01:53:05;;;;;;;1.30;1.20;;;24.90;50.20;;;;;;5066997;28;20016;-80
2022/07/31 01:55:33;;;;;;;1.23;1.13;;;24.80;50.20;;;;;;5068616;28;20035;-79
2022/07/31 01:58:00;;;;;;;2.03;1.30;;;24.90;50.30;;;;;;5065659;28;20028;-81
2022/07/31 02:00:27;;;;;;;2.40;1.63;;;24.80;50.30;;;;;;5050403;28;20091;-79
2022/07/31 02:02:54;;;;;;;1.40;1.30;;;24.80;50.30;;;;;;5063382;28;20481;-82
2022/07/31 02:05:22;;;;;;;2.95;1.40;;;24.80;50.40;;;;;;5082681;28;20029;-81
2022/07/31 02:07:48;;;;;;;1.38;1.20;;;24.80;50.40;;;;;;5062336;28;20024;-81
2022/07/31 02:10:17;;;;;;;1.92;1.45;;;24.80;50.50;;;;;;5079585;28;20423;-82
2022/07/31 02:12:44;;;;;;;1.65;1.35;;;24.70;50.50;;;;;;5075558;28;20063;-81
2022/07/31 02:15:13;;;;;;;1.63;1.35;;;24.70;50.60;;;;;;5065234;28;20052;-81
2022/07/31 02:17:44;;;;;;;1.48;1.38;;;24.70;50.60;;;;;;5078797;28;20062;-80
2022/07/31 02:20:22;;;;;;;1.30;1.10;;;24.60;50.60;;;;;;5053884;28;20029;-80
2022/07/31 02:22:52;;;;;;;1.38;1.27;;;24.60;50.60;;;;;;5065554;28;20029;-82
2022/07/31 02:25:19;;;;;;;1.45;1.30;;;24.60;50.60;;;;;;5075177;28;20867;-83
2022/07/31 02:27:46;;;;;;;2.58;1.45;;;24.60;50.70;;;;;;5078655;28;20036;-81
2022/07/31 02:30:14;;;;;;;1.40;1.30;;;24.60;50.70;;;;;;5064166;28;20036;-80
2022/07/31 02:32:42;;;;;;;1.63;1.38;;;24.60;50.80;;;;;;5061031;28;20021;-80
2022/07/31 02:35:09;;;;;;;2.10;1.42;;;24.50;50.80;;;;;;5058275;28;20033;-85
2022/07/31 02:37:37;;;;;;;1.50;1.40;;;24.50;50.80;;;;;;5070590;28;20661;-81
2022/07/31 02:40:05;;;;;;;1.75;1.40;;;24.50;50.90;;;;;;5067429;28;20040;-80
2022/07/31 02:42:31;;;;;;;1.52;1.33;;;24.50;50.90;;;;;;5065112;28;20029;-80
2022/07/31 02:44:59;;;;;;;1.73;1.20;;;24.40;50.90;;;;;;5096415;28;20051;-80
2022/07/31 02:47:26;;;;;;;1.60;1.30;;;24.40;50.90;;;;;;5071574;28;20269;-81
2022/07/31 02:49:54;;;;;;;2.00;1.40;;;24.40;50.90;;;;;;5053867;28;20457;-81
2022/07/31 02:52:21;;;;;;;1.55;1.40;;;24.40;51.00;;;;;;5054975;28;20075;-80
2022/07/31 02:54:49;;;;;;;1.52;1.30;;;24.40;51.00;;;;;;5049235;28;20101;-80
2022/07/31 02:57:16;;;;;;;1.90;1.40;;;24.40;51.00;;;;;;5095455;28;20047;-84
2022/07/31 02:59:42;;;;;;;2.15;1.33;;;24.40;51.10;;;;;;5068709;28;20106;-80
2022/07/31 03:02:09;;;;;;;1.58;1.48;;;24.30;51.70;;;;;;5067050;28;20021;-86
2022/07/31 03:04:40;;;;;;;1.67;1.50;;;24.30;51.10;;;;;;5062043;28;20462;-80
2022/07/31 03:07:08;;;;;;;1.55;1.40;;;24.30;51.10;;;;;;5055342;28;20029;-80
2022/07/31 03:09:33;;;;;;;1.90;1.52;;;24.30;51.20;;;;;;5052411;28;20033;-83
2022/07/31 03:12:51;;;;;;;1.75;1.30;;;24.30;51.30;;;;;;5051784;28;20485;-80
2022/07/31 03:15:19;;;;;;;1.85;1.48;;;24.30;51.40;;;;;;5067868;28;20044;-84
2022/07/31 03:17:47;;;;;;;2.00;1.52;;;24.20;51.30;;;;;;5066225;28;20125;-80
2022/07/31 03:20:18;;;;;;;1.65;1.40;;;24.20;51.40;;;;;;5065667;28;20051;-80
2022/07/31 03:22:45;;;;;;;1.48;1.35;;;24.20;51.50;;;;;;5073312;28;20476;-80
2022/07/31 03:25:12;;;;;;;2.10;1.50;;;24.20;51.60;;;;;;5039996;28;20117;-80
2022/07/31 03:27:38;;;;;;;1.52;1.42;;;24.20;51.70;;;;;;5067064;28;20477;-81
2022/07/31 03:30:05;;;;;;;1.90;1.50;;;24.10;51.70;;;;;;5065461;28;20027;-81
2022/07/31 03:32:31;;;;;;;1.60;1.50;;;24.10;51.80;;;;;;5074174;28;20033;-79
2022/07/31 03:34:57;;;;;;;1.70;1.40;;;24.10;51.80;;;;;;5062529;28;20029;-80
2022/07/31 03:37:23;;;;;;;1.85;1.50;;;24.10;51.90;;;;;;5061957;28;20443;-80
2022/07/31 03:39:49;;;;;;;1.40;1.30;;;24.10;52.00;;;;;;5062785;28;20021;-81
2022/07/31 03:42:16;;;;;;;1.73;1.30;;;24.10;52.10;;;;;;5062511;28;20432;-81
2022/07/31 03:44:43;;;;;;;1.63;1.48;;;24.10;52.10;;;;;;5061776;28;20059;-79
2022/07/31 03:47:09;;;;;;;1.63;1.20;;;24.10;52.10;;;;;;5047247;28;20029;-80
2022/07/31 03:49:35;;;;;;;1.55;1.45;;;24.00;52.20;;;;;;5066696;28;20433;-81
2022/07/31 03:52:01;;;;;;;1.92;1.50;;;24.00;52.20;;;;;;5096738;28;20035;-80
2022/07/31 03:54:27;;;;;;;2.03;1.55;;;24.00;52.30;;;;;;5054360;28;20107;-81
2022/07/31 03:57:01;;;;;;;1.92;1.50;;;24.00;52.30;;;;;;5050216;28;20040;-80
2022/07/31 03:59:28;;;;;;;2.03;1.50;;;24.00;52.30;;;;;;5055560;28;20044;-80
2022/07/31 04:01:54;;;;;;;1.55;1.45;;;24.00;52.40;;;;;;5048922;28;20039;-80
2022/07/31 04:04:33;;;;;;;2.15;1.65;;;23.90;52.30;;;;;;5094412;28;20063;-80
2022/07/31 04:07:00;;;;;;;2.90;1.55;;;23.90;52.40;;;;;;5066927;28;20036;-81
2022/07/31 04:09:26;;;;;;;1.85;1.70;;;23.90;52.40;;;;;;5065517;28;20029;-81
2022/07/31 04:11:52;;;;;;;2.13;1.67;;;23.90;52.40;;;;;;5035365;28;20077;-79
2022/07/31 04:14:18;;;;;;;2.15;1.58;;;23.90;52.40;;;;;;5037095;28;20032;-81
2022/07/31 04:16:44;;;;;;;2.40;1.73;;;23.90;52.40;;;;;;5066364;28;20036;-80
2022/07/31 04:19:10;;;;;;;1.52;1.42;;;23.90;52.50;;;;;;5079935;28;20107;-83
2022/07/31 04:21:35;;;;;;;2.28;1.85;;;23.80;52.50;;;;;;5068938;28;20763;-81
2022/07/31 04:24:01;;;;;;;1.80;1.70;;;23.80;52.50;;;;;;5037663;28;20425;-80
2022/07/31 04:26:47;;;;;;;1.93;1.77;;;23.80;52.50;;;;;;5058147;28;20102;-83
2022/07/31 04:29:13;;;;;;;2.20;1.80;;;23.80;52.40;;;;;;5076863;28;20041;-80
2022/07/31 04:31:38;;;;;;;2.30;2.10;;;23.80;52.50;;;;;;5076018;28;20051;-83
2022/07/31 04:34:06;;;;;;;2.05;1.70;;;23.80;52.60;;;;;;5083469;28;20028;-82
2022/07/31 04:36:32;;;;;;;2.58;2.00;;;23.80;52.50;;;;;;5075394;28;20040;-82
2022/07/31 04:38:59;;;;;;;2.33;1.80;;;23.80;52.60;;;;;;5059637;28;20144;-79
2022/07/31 04:41:25;;;;;;;2.20;1.60;;;23.80;52.60;;;;;;5047740;28;20124;-80
2022/07/31 04:43:51;;;;;;;1.90;1.77;;;23.70;52.60;;;;;;5049417;28;20107;-79
2022/07/31 04:46:17;;;;;;;2.55;1.85;;;23.70;52.60;;;;;;5047586;28;20031;-83
2022/07/31 04:48:43;;;;;;;2.28;1.88;;;23.70;52.60;;;;;;5057722;28;20048;-80
2022/07/31 04:51:17;;;;;;;2.00;1.73;;;23.70;52.60;;;;;;5051017;28;20043;-80
2022/07/31 04:53:43;;;;;;;1.98;1.63;;;23.70;52.80;;;;;;5052549;28;20039;-79
2022/07/31 04:57:09;;;;;;;2.53;1.83;;;23.70;52.70;;;;;;5062224;28;20050;-80
2022/07/31 04:59:07;;;;;;;2.53;1.80;;;23.60;52.70;;;;;;5051431;28;20045;-79
2022/07/31 05:01:35;;;;;;;3.33;2.17;;;23.70;52.70;;;;;;5081121;28;20449;-80
2022/07/31 05:04:01;;;;;;;2.40;1.67;;;23.60;52.70;;;;;;5078806;28;20024;-80
2022/07/31 05:06:35;;;;;;;2.25;1.85;;;23.60;52.70;;;;;;5047119;28;20067;-80
2022/07/31 05:09:03;;;;;;;1.95;1.70;;;23.60;52.80;;;;;;5066345;28;20045;-81
2022/07/31 05:11:31;;;;;;;2.83;1.85;;;23.60;52.80;;;;;;5060201;28;20469;-80
2022/07/31 05:13:59;;;;;;;2.17;1.67;;;23.60;52.80;;;;;;5067718;28;20487;-81
2022/07/31 05:16:29;;;;;;;2.60;1.90;;;23.60;52.80;;;;;;5053406;28;20047;-81
2022/07/31 05:18:56;;;;;;;2.40;1.95;;;23.60;52.90;;;;;;5076965;28;20021;-80
2022/07/31 05:21:43;;;;;;;2.08;1.65;;;23.60;52.80;;;;;;5053569;28;20079;-81
2022/07/31 05:24:32;;;;;;;2.70;1.83;;;23.60;52.80;;;;;;5057776;28;20098;-80
2022/07/31 05:27:06;;;;;;;2.58;1.95;;;23.60;52.80;;;;;;5058933;28;20036;-81
2022/07/31 05:29:32;;;;;;;1.90;1.58;;;23.60;52.80;;;;;;5061228;28;20128;-81
2022/07/31 05:31:59;;;;;;;3.03;1.70;;;23.60;52.80;;;;;;5096059;28;20384;-80
2022/07/31 05:34:25;;;;;;;2.13;1.80;;;23.50;52.70;;;;;;5065396;28;20032;-85
2022/07/31 05:36:51;;;;;;;2.85;1.65;;;23.60;52.80;;;;;;5060693;28;20025;-80
2022/07/31 05:39:17;;;;;;;2.35;1.90;;;23.50;52.80;;;;;;5066552;28;20388;-81
2022/07/31 05:42:01;;;;;;;1.90;1.60;;;23.60;52.90;;;;;;5069695;28;20104;-79
2022/07/31 05:45:03;;;;;;;2.47;1.75;;;23.60;52.90;;;;;;5016931;28;20084;-82
2022/07/31 05:47:28;;;;;;;1.80;1.58;;;23.50;52.80;;;;;;5042378;28;20627;-80
2022/07/31 05:49:54;;;;;;;2.90;1.85;;;23.50;52.90;;;;;;5063466;28;20143;-80
2022/07/31 05:52:20;;;;;;;2.58;1.85;;;23.50;53.00;;;;;;5094518;28;20156;-81
2022/07/31 05:54:56;;;;;;;2.13;1.80;;;23.50;53.00;;;;;;5046505;28;20571;-85
2022/07/31 05:57:51;;;;;;;3.53;1.73;;;23.60;53.10;;;;;;5014521;28;20042;-81
2022/07/31 06:00:17;;;;;;;1.88;1.67;;;23.50;53.10;;;;;;5043479;28;20033;-83
2022/07/31 06:02:44;;;;;;;3.00;1.90;;;23.50;53.10;;;;;;5035373;28;20056;-80
2022/07/31 06:05:31;;;;;;;1.98;1.77;;;23.60;53.20;;;;;;5089385;28;20037;-80
2022/07/31 06:07:57;;;;;;;2.38;1.90;;;23.60;53.30;;;;;;5059051;28;20473;-82
2022/07/31 06:10:23;;;;;;;2.90;1.77;;;23.50;53.20;;;;;;5051207;28;20044;-83
2022/07/31 06:12:49;;;;;;;2.35;1.90;;;23.50;53.30;;;;;;5061883;28;20469;-81
2022/07/31 06:15:16;;;;;;;2.00;1.70;;;23.60;53.30;;;;;;5097704;27;20024;-81
2022/07/31 06:17:42;;;;;;;2.53;1.95;;;23.60;53.30;;;;;;5069922;28;20029;-81
2022/07/31 06:20:16;;;;;;;2.55;2.00;;;23.60;53.40;;;;;;5084783;28;20033;-80
2022/07/31 06:22:43;;;;;;;2.45;1.60;;;23.60;53.40;;;;;;5055459;28;20037;-81
2022/07/31 06:25:10;;;;;;;2.10;1.80;;;23.60;53.40;;;;;;5064643;28;20055;-81
2022/07/31 06:27:36;;;;;;;2.83;2.03;;;23.60;53.40;;;;;;5089706;28;20119;-83
2022/07/31 06:30:05;;;;;;;2.95;1.85;;;23.60;53.40;;;;;;5049527;28;20020;-87
2022/07/31 06:32:31;;;;;;;2.20;1.77;;;23.60;53.40;;;;;;5070962;28;20120;-83
2022/07/31 06:34:57;;;;;;;3.05;1.90;;;23.60;53.50;;;;;;5083911;28;20074;-84
2022/07/31 06:37:26;;;;;;;2.50;1.95;;;23.60;53.40;;;;;;5056224;28;20034;-83
2022/07/31 06:39:53;;;;;;;2.53;1.80;;;23.60;53.40;;;;;;5077020;28;20052;-83
2022/07/31 06:42:57;;;;;;;2.83;1.90;;;23.60;53.50;;;;;;5072824;28;20032;-83
2022/07/31 06:45:49;;;;;;;3.25;1.95;;;23.60;54.00;;;;;;5056105;28;20044;-83
2022/07/31 06:48:35;;;;;;;2.67;2.00;;;23.60;53.40;;;;;;5075781;28;20037;-83
2022/07/31 06:51:07;;;;;;;2.88;2.05;;;23.60;53.50;;;;;;5056020;28;20028;-83
2022/07/31 06:53:39;;;;;;;2.88;2.10;;;23.60;53.50;;;;;;5071729;28;20029;-84
2022/07/31 06:56:05;;;;;;;3.22;2.20;;;23.60;53.60;;;;;;5071806;28;20035;-84
2022/07/31 06:58:31;;;;;;;3.35;2.20;;;23.60;53.60;;;;;;5078950;28;20370;-84
2022/07/31 07:00:56;;;;;;;2.67;2.10;;;23.60;53.60;;;;;;5055141;28;20125;-85
2022/07/31 07:03:22;;;;;;;2.65;2.10;;;23.60;53.60;;;;;;5073627;28;20074;-85
2022/07/31 07:05:48;;;;;;;2.80;2.20;;;23.60;53.60;;;;;;5062337;28;20037;-84
2022/07/31 07:08:14;;;;;;;2.78;2.15;;;23.60;53.70;;;;;;5069205;28;20397;-85
2022/07/31 07:10:42;;;;;;;3.03;2.38;;;23.60;53.60;;;;;;5077950;28;20029;-84
2022/07/31 07:13:26;;;;;;;3.00;2.22;;;23.60;53.70;;;;;;5062129;28;20036;-84
2022/07/31 07:15:52;;;;;;;2.78;2.08;;;23.60;53.60;;;;;;5068801;28;20024;-84
2022/07/31 07:18:21;;;;;;;3.05;2.33;;;23.60;53.70;;;;;;5052094;28;20040;-84
2022/07/31 07:20:51;;;;;;;3.22;2.33;;;23.70;53.80;;;;;;5090606;28;20461;-84
2022/07/31 07:23:17;;;;;;;2.83;2.30;;;23.70;53.80;;;;;;5065753;28;20035;-83
2022/07/31 07:26:03;;;;;;;2.60;2.15;;;23.70;53.80;;;;;;5077904;28;20035;-84
2022/07/31 07:28:29;;;;;;;3.20;2.25;;;23.70;53.70;;;;;;5075513;28;20032;-84
2022/07/31 07:30:56;;;;;;;3.97;2.60;;;23.70;53.80;;;;;;5092274;28;20021;-86
2022/07/31 07:33:22;;;;;;;3.38;2.45;;;23.70;53.80;;;;;;5083271;28;20035;-86
2022/07/31 07:35:47;;;;;;;3.72;2.28;;;23.70;53.80;;;;;;5064035;28;20079;-83
2022/07/31 07:38:16;;;;;;;3.50;2.28;;;23.70;53.90;;;;;;5064054;28;20060;-83
2022/07/31 07:40:43;;;;;;;4.15;2.45;;;23.70;53.80;;;;;;5047619;28;20025;-83
2022/07/31 07:43:08;;;;;;;3.53;2.35;;;23.80;53.90;;;;;;5098966;28;20388;-83
2022/07/31 07:45:34;;;;;;;4.45;2.42;;;23.70;53.90;;;;;;5093820;27;20040;-85
2022/07/31 07:48:01;;;;;;;3.35;2.00;;;23.80;53.90;;;;;;5050025;28;20028;-86
2022/07/31 07:50:29;;;;;;;3.25;2.28;;;23.80;54.00;;;;;;5046904;28;20046;-84
2022/07/31 07:53:15;;;;;;;3.63;2.35;;;23.80;54.00;;;;;;5065903;28;20119;-80
2022/07/31 07:56:13;;;;;;;3.05;2.17;;;23.80;54.00;;;;;;5046184;28;20028;-81
2022/07/31 07:58:59;;;;;;;2.95;2.05;;;23.80;53.90;;;;;;5066025;28;20049;-82
2022/07/31 08:01:43;;;;;;;3.10;2.13;;;23.80;54.00;;;;;;5077613;28;20527;-82
2022/07/31 08:04:24;;;;;;;3.60;2.22;;;23.80;53.90;;;;;;5064226;28;20047;-82
2022/07/31 08:06:50;;;;;;;3.30;2.28;;;23.80;53.90;;;;;;5064098;28;20100;-84
2022/07/31 08:09:19;;;;;;;3.13;2.38;;;23.80;54.00;;;;;;5061881;28;20024;-85
2022/07/31 08:12:03;;;;;;;2.53;2.03;;;23.80;54.00;;;;;;5065124;28;20048;-84
2022/07/31 08:14:48;;;;;;;3.00;2.08;;;23.90;54.00;;;;;;5063721;28;20039;-85
2022/07/31 08:17:32;;;;;;;2.83;2.10;;;23.80;53.90;;;;;;5076919;28;20051;-84
2022/07/31 08:19:57;;;;;;;3.22;2.40;;;23.90;54.00;;;;;;5098970;28;20040;-84
2022/07/31 08:22:23;;;;;;;2.55;2.15;;;23.90;54.00;;;;;;5048339;28;20032;-84
2022/07/31 08:24:49;;;;;;;3.92;2.33;;;23.90;54.10;;;;;;5063225;28;20044;-85
2022/07/31 08:27:24;;;;;;;3.72;2.72;;;23.90;54.10;;;;;;5038697;28;20112;-84
2022/07/31 08:29:51;;;;;;;4.18;2.40;;;23.90;54.10;;;;;;5080147;28;20380;-85
2022/07/31 08:32:18;;;;;;;3.53;2.38;;;23.90;54.10;;;;;;5070590;28;20028;-84
2022/07/31 08:35:07;;;;;;;3.25;2.30;;;24.00;54.20;;;;;;5058320;28;20040;-83
2022/07/31 08:37:33;;;;;;;3.35;2.15;;;24.00;54.20;;;;;;5050861;28;20044;-86
2022/07/31 08:39:59;;;;;;;3.03;2.25;;;24.00;54.20;;;;;;5065325;28;20397;-84
2022/07/31 08:42:25;;;;;;;3.30;2.42;;;24.00;54.30;;;;;;5078128;28;20384;-80
2022/07/31 08:44:52;;;;;;;2.67;2.20;;;24.00;54.30;;;;;;5065949;28;20396;-83
2022/07/31 08:47:25;;;;;;;2.97;1.92;;;24.10;54.40;;;;;;5033028;28;20478;-82
2022/07/31 08:49:53;;;;;;;2.85;2.28;;;24.00;54.30;;;;;;5063670;28;20024;-82
2022/07/31 08:52:23;;;;;;;2.85;2.08;;;24.10;54.40;;;;;;5070729;28;20036;-82
2022/07/31 08:55:07;;;;;;;3.80;2.05;;;24.10;54.40;;;;;;5085477;28;20036;-85
2022/07/31 08:57:34;;;;;;;3.65;2.40;;;24.10;54.40;;;;;;5053155;28;20037;-83
2022/07/31 09:00:06;;;;;;;3.15;2.30;;;24.20;54.40;;;;;;5098199;28;20036;-85
2022/07/31 09:02:31;;;;;;;2.80;2.10;;;24.20;54.40;;;;;;5070631;28;20032;-85
2022/07/31 09:05:16;;;;;;;2.85;2.00;;;24.20;54.40;;;;;;5070776;28;20047;-84
2022/07/31 09:07:42;;;;;;;3.55;2.05;;;24.20;54.30;;;;;;5073071;28;20035;-85
2022/07/31 09:10:25;;;;;;;2.97;2.33;;;24.30;54.40;;;;;;5106261;27;20148;-82
2022/07/31 09:12:55;;;;;;;3.25;2.15;;;24.30;54.50;;;;;;5071342;28;20017;-83
2022/07/31 09:15:26;;;;;;;2.63;1.77;;;24.40;54.50;;;;;;5070463;28;20067;-85
2022/07/31 09:17:52;;;;;;;3.25;2.08;;;24.40;54.40;;;;;;5067962;28;20046;-83
2022/07/31 09:20:21;;;;;;;3.53;2.28;;;24.50;54.50;;;;;;5079451;28;20146;-84
2022/07/31 09:23:12;;;;;;;2.85;2.10;;;24.40;54.40;;;;;;5087822;28;20023;-83
2022/07/31 09:25:52;;;;;;;2.42;1.92;;;24.50;54.40;;;;;;5110888;27;20028;-86
2022/07/31 09:28:18;;;;;;;3.05;1.90;;;24.60;54.40;;;;;;5074931;28;20033;-83
2022/07/31 09:30:53;;;;;;;3.00;2.08;;;24.60;54.30;;;;;;5083817;28;20033;-82
2022/07/31 09:33:54;;;;;;;2.88;2.00;;;24.60;54.30;;;;;;5012250;28;20951;-82
2022/07/31 09:36:35;;;;;;;2.45;1.83;;;24.70;54.20;;;;;;5055624;28;20074;-85
2022/07/31 09:39:30;;;;;;;3.00;2.17;;;24.70;54.20;;;;;;5059514;28;20081;-85
2022/07/31 09:42:42;;;;;;;2.47;1.80;;;24.80;54.20;;;;;;5065102;28;20049;-84
2022/07/31 09:45:21;;;;;;;2.38;1.80;;;24.80;54.20;;;;;;5062455;28;20395;-83
2022/07/31 09:47:47;;;;;;;2.85;1.95;;;24.80;54.20;;;;;;5058900;28;20024;-82
2022/07/31 09:50:13;;;;;;;2.55;1.92;;;24.80;54.30;;;;;;5077254;28;20082;-81
2022/07/31 09:52:39;;;;;;;2.72;2.10;;;24.90;54.20;;;;;;5062719;28;20033;-84
2022/07/31 09:55:10;;;;;;;3.22;2.28;;;24.90;54.20;;;;;;5077018;28;20028;-83
2022/07/31 09:57:38;;;;;;;3.08;2.10;;;25.00;54.20;;;;;;5065963;28;20037;-87
2022/07/31 10:00:07;;;;;;;2.60;2.10;;;25.00;54.30;;;;;;5063627;28;20051;-84
2022/07/31 10:02:42;;;;;;;3.67;2.40;;;25.00;54.30;;;;;;5079023;28;20113;-81
2022/07/31 10:05:11;;;;;;;2.75;2.03;;;25.00;54.30;;;;;;5079124;28;20058;-82
2022/07/31 10:07:38;;;;;;;3.33;2.20;;;25.10;54.40;;;;;;5064335;28;20066;-83
2022/07/31 10:10:21;;;;;;;3.00;2.17;;;25.10;54.40;;;;;;5058292;28;20505;-82
2022/07/31 10:13:02;;;;;;;3.00;2.20;;;25.10;54.40;;;;;;5068188;28;20074;-82
2022/07/31 10:15:28;;;;;;;2.50;2.08;;;25.10;54.50;;;;;;5069411;28;20123;-82
2022/07/31 10:18:30;;;;;;;2.88;2.22;;;25.10;54.50;;;;;;5023628;28;20140;-81
2022/07/31 10:21:11;;;;;;;3.37;2.10;;;25.20;54.60;;;;;;5081464;28;20020;-83
2022/07/31 10:23:48;;;;;;;2.95;2.28;;;25.20;54.60;;;;;;5078016;28;20048;-82
2022/07/31 10:26:14;;;;;;;2.78;2.28;;;25.20;54.70;;;;;;5066969;28;20025;-82
2022/07/31 10:28:41;;;;;;;4.18;2.45;;;25.20;54.80;;;;;;5066109;28;20508;-82
2022/07/31 10:31:10;;;;;;;4.60;2.72;;;25.20;54.90;;;;;;5069410;28;20024;-82
2022/07/31 10:33:36;;;;;;;3.47;2.60;;;25.20;55.00;;;;;;5094030;28;20017;-82
2022/07/31 10:36:24;;;;;;;3.90;2.55;;;25.20;55.00;;;;;;5051112;28;20062;-83
2022/07/31 10:39:23;;;;;;;3.30;2.30;;;25.20;55.00;;;;;;5069274;28;20101;-82
2022/07/31 10:42:12;;;;;;;4.18;2.90;;;25.30;55.10;;;;;;5061972;28;20436;-82
2022/07/31 10:44:49;;;;;;;3.65;2.50;;;25.30;55.20;;;;;;5072572;28;20537;-82
2022/07/31 10:47:25;;;;;;;3.78;2.47;;;25.30;55.30;;;;;;5066102;28;20032;-82
2022/07/31 10:50:23;;;;;;;3.92;2.67;;;25.30;55.20;;;;;;5079525;28;20382;-82
2022/07/31 10:53:14;;;;;;;4.00;2.78;;;25.30;55.30;;;;;;5058516;28;20040;-82
2022/07/31 10:56:03;;;;;;;3.80;2.58;;;25.30;55.30;;;;;;5052973;28;20103;-83
2022/07/31 10:58:55;;;;;;;3.83;2.58;;;25.30;55.30;;;;;;5057794;28;20078;-85
2022/07/31 11:01:48;;;;;;;4.53;2.55;;;25.30;55.40;;;;;;5076712;28;20123;-84
2022/07/31 11:04:40;;;;;;;3.95;2.90;;;25.40;55.40;;;;;;5075524;28;20032;-83
2022/07/31 11:07:24;;;;;;;3.83;2.78;;;25.40;55.40;;;;;;5106823;28;20063;-84
2022/07/31 11:10:20;;;;;;;;;;;25.40;55.40;;;;;;5034468;28;20025;-85
2022/07/31 11:13:23;;;;;;;4.05;2.40;;;25.40;55.10;;;;;;5067364;28;19912;-84
2022/07/31 11:16:12;;;;;;;4.03;2.47;;;25.40;55.20;;;;;;5064554;28;20036;-83
2022/07/31 11:19:13;;;;;;;3.15;2.22;;;25.40;55.30;;;;;;5049293;28;20056;-83
2022/07/31 11:21:40;;;;;;;3.58;2.90;;;25.40;55.30;;;;;;5057386;28;20059;-83
2022/07/31 11:24:21;;;;;;;4.05;2.90;;;25.40;55.40;;;;;;5065089;28;20029;-86
2022/07/31 11:26:57;;;;;;;3.20;2.47;;;25.40;55.50;;;;;;5059375;28;20028;-83
2022/07/31 11:29:34;;;;;;;3.92;3.00;;;25.50;55.50;;;;;;5083160;28;20036;-84
2022/07/31 11:32:17;;;;;;;4.03;3.00;;;25.50;55.50;;;;;;5062831;28;20151;-84
2022/07/31 11:34:52;;;;;;;3.65;2.97;;;25.50;55.60;;;;;;5050249;28;20078;-81
2022/07/31 11:37:22;;;;;;;3.65;2.92;;;25.50;55.50;;;;;;5083313;28;20024;-83
2022/07/31 11:39:52;;;;;;;3.35;2.78;;;25.50;55.50;;;;;;5078867;28;20036;-84
2022/07/31 11:42:20;;;;;;;4.20;2.80;;;25.50;55.40;;;;;;5072075;28;20190;-83
2022/07/31 11:44:46;;;;;;;3.60;2.90;;;25.60;55.50;;;;;;5051783;28;20091;-85
2022/07/31 11:47:12;;;;;;;3.80;2.80;;;25.60;55.50;;;;;;5075013;28;20020;-83
2022/07/31 11:49:38;;;;;;;5.57;3.17;;;25.60;55.50;;;;;;5073697;28;20017;-83
2022/07/31 11:52:06;;;;;;;4.47;2.72;;;25.60;55.40;;;;;;5083328;28;20025;-83
2022/07/31 11:54:32;;;;;;;3.17;2.63;;;25.60;55.40;;;;;;5068339;28;20016;-84
2022/07/31 11:56:59;;;;;;;3.58;2.90;;;25.70;55.50;;;;;;5056058;28;20035;-84
2022/07/31 11:59:33;;;;;;;3.70;2.95;;;25.70;55.50;;;;;;5072272;28;20044;-84
2022/07/31 12:02:11;;;;;;;3.83;3.05;;;25.70;55.60;;;;;;5102013;28;20496;-86
2022/07/31 12:04:38;;;;;;;4.15;3.17;;;25.70;55.50;;;;;;5071811;28;20101;-85
2022/07/31 12:07:05;;;;;;;3.42;2.75;;;25.70;55.40;;;;;;5068723;28;20025;-85
2022/07/31 12:09:32;;;;;;;3.20;2.50;;;25.70;55.30;;;;;;5057937;28;20094;-84
2022/07/31 12:11:58;;;;;;;3.58;2.90;;;25.70;55.30;;;;;;5072039;28;20415;-86
2022/07/31 12:14:38;;;;;;;3.05;2.60;;;25.80;55.30;;;;;;5073347;28;20053;-85
2022/07/31 12:17:06;;;;;;;3.35;2.60;;;25.80;55.30;;;;;;5069940;28;20032;-84
2022/07/31 12:19:35;;;;;;;4.22;2.90;;;25.80;55.30;;;;;;5101213;28;20480;-84
2022/07/31 12:22:19;;;;;;;3.42;2.67;;;25.80;55.30;;;;;;5068672;28;20050;-80
2022/07/31 12:24:46;;;;;;;4.70;3.25;;;25.90;55.40;;;;;;5076540;28;20036;-84
2022/07/31 12:27:18;;;;;;;4.10;2.75;;;25.90;55.30;;;;;;5052674;28;20021;-84
2022/07/31 12:29:44;;;;;;;3.47;2.67;;;25.90;55.30;;;;;;5064754;28;20032;-85
2022/07/31 12:32:09;;;;;;;3.20;2.63;;;25.90;55.20;;;;;;5046934;28;20023;-89
2022/07/31 12:34:40;;;;;;;3.50;2.70;;;25.90;55.90;;;;;;5049845;28;20390;-82
2022/07/31 12:37:11;;;;;;;3.40;2.55;;;26.00;55.30;;;;;;5069020;28;20020;-83
2022/07/31 12:39:50;;;;;;;2.88;2.40;;;26.00;55.30;;;;;;5072888;28;20039;-83
2022/07/31 12:42:24;;;;;;;2.47;2.17;;;26.00;55.30;;;;;;5075245;28;20029;-84
2022/07/31 12:44:51;;;;;;;3.22;2.53;;;26.00;55.30;;;;;;5071975;28;20063;-85
2022/07/31 12:47:25;;;;;;;2.90;2.35;;;26.00;55.10;;;;;;5068004;28;20070;-85
2022/07/31 12:49:52;;;;;;;3.28;2.53;;;26.00;55.20;;;;;;5085536;28;20036;-83
2022/07/31 12:52:18;;;;;;;3.03;2.30;;;26.00;55.10;;;;;;5094338;28;20080;-85
2022/07/31 12:54:45;;;;;;;2.95;2.42;;;26.00;55.10;;;;;;5093874;28;20047;-88
2022/07/31 12:57:11;;;;;;;2.78;2.40;;;26.10;55.10;;;;;;5073017;28;20070;-84
2022/07/31 12:59:37;;;;;;;3.20;2.60;;;26.10;55.10;;;;;;5067455;28;20059;-85
2022/07/31 13:02:04;;;;;;;2.20;2.00;;;26.10;55.10;;;;;;5069517;28;20036;-84
2022/07/31 13:04:30;;;;;;;2.80;2.22;;;26.10;55.00;;;;;;5067400;28;20041;-83
2022/07/31 13:06:56;;;;;;;2.95;2.30;;;26.10;55.00;;;;;;5094652;28;20066;-83
2022/07/31 13:09:22;;;;;;;2.40;2.00;;;26.20;55.00;;;;;;5051762;28;20463;-83
2022/07/31 13:11:48;;;;;;;2.70;1.90;;;26.20;54.90;;;;;;5053541;28;20104;-83